Map

Track Data

SID SEASON NUMBER BASIN SUBBASIN NAME ISO_TIME NATURE LAT LON WMO_WIND WMO_PRES WMO_AGENCY TRACK_TYPE DIST2LAND LANDFALL IFLAG USA_AGENCY USA_ATCF_ID USA_LAT USA_LON USA_RECORD USA_STATUS USA_WIND USA_PRES USA_SSHS USA_R34_NE USA_R34_SE USA_R34_SW USA_R34_NW USA_R50_NE USA_R50_SE USA_R50_SW USA_R50_NW USA_R64_NE USA_R64_SE USA_R64_SW USA_R64_NW USA_POCI USA_ROCI USA_RMW USA_EYE TOKYO_LAT TOKYO_LON TOKYO_GRADE TOKYO_WIND TOKYO_PRES TOKYO_R50_DIR TOKYO_R50_LONG TOKYO_R50_SHORT TOKYO_R30_DIR TOKYO_R30_LONG TOKYO_R30_SHORT TOKYO_LAND CMA_LAT CMA_LON CMA_CAT CMA_WIND CMA_PRES HKO_LAT HKO_LON HKO_CAT HKO_WIND HKO_PRES NEWDELHI_LAT NEWDELHI_LON NEWDELHI_GRADE NEWDELHI_WIND NEWDELHI_PRES NEWDELHI_CI NEWDELHI_DP NEWDELHI_POCI REUNION_LAT REUNION_LON REUNION_TYPE REUNION_WIND REUNION_PRES REUNION_TNUM REUNION_CI REUNION_RMW REUNION_R34_NE REUNION_R34_SE REUNION_R34_SW REUNION_R34_NW REUNION_R50_NE REUNION_R50_SE REUNION_R50_SW REUNION_R50_NW REUNION_R64_NE REUNION_R64_SE REUNION_R64_SW REUNION_R64_NW BOM_LAT BOM_LON BOM_TYPE BOM_WIND BOM_PRES BOM_TNUM BOM_CI BOM_RMW BOM_R34_NE BOM_R34_SE BOM_R34_SW BOM_R34_NW BOM_R50_NE BOM_R50_SE BOM_R50_SW BOM_R50_NW BOM_R64_NE BOM_R64_SE BOM_R64_SW BOM_R64_NW BOM_ROCI BOM_POCI BOM_EYE BOM_POS_METHOD BOM_PRES_METHOD NADI_LAT NADI_LON NADI_CAT NADI_WIND NADI_PRES WELLINGTON_LAT WELLINGTON_LON WELLINGTON_WIND WELLINGTON_PRES DS824_LAT DS824_LON DS824_STAGE DS824_WIND DS824_PRES TD9636_LAT TD9636_LON TD9636_STAGE TD9636_WIND TD9636_PRES TD9635_LAT TD9635_LON TD9635_WIND TD9635_PRES TD9635_ROCI NEUMANN_LAT NEUMANN_LON NEUMANN_CLASS NEUMANN_WIND NEUMANN_PRES MLC_LAT MLC_LON MLC_CLASS MLC_WIND MLC_PRES USA_GUST BOM_GUST BOM_GUST_PER REUNION_GUST REUNION_GUST_PER USA_SEAHGT USA_SEARAD_NE USA_SEARAD_SE USA_SEARAD_SW USA_SEARAD_NW STORM_SPEED STORM_DIR
1949021S21115 1949 5 SI WA NOT_NAMED 1949-01-21 06:00:00 NR -21.2000 114.700 main 59 59 _____O________ -1 -21.2000 114.700 99 9.90000 1 240
1949021S21115 1949 5 SI WA NOT_NAMED 1949-01-21 09:00:00 NR -21.2345 114.637 main 63 54 _____P________ -1 -21.2345 114.637 99 1 238
1949021S21115 1949 5 SI WA NOT_NAMED 1949-01-21 12:00:00 NR -21.2729 114.570 main 54 54 _____P________ -1 -21.2729 114.570 99 2 238
1949021S21115 1949 5 SI WA NOT_NAMED 1949-01-21 15:00:00 NR -21.3190 114.497 main 56 49 _____P________ -1 -21.3190 114.497 99 2 235
1949021S21115 1949 5 SI WA NOT_NAMED 1949-01-21 18:00:00 NR -21.3767 114.413 main 49 49 _____P________ -1 -21.3767 114.413 99 2 232
1949021S21115 1949 5 SI WA NOT_NAMED 1949-01-21 21:00:00 NR -21.4498 114.315 main 54 45 _____P________ -1 -21.4498 114.315 99 3 230
1949021S21115 1949 5 SI WA NOT_NAMED 1949-01-22 00:00:00 NR -21.5421 114.199 main 45 22 _____P________ -1 -21.5421 114.199 99 3 229
1949021S21115 1949 5 SI WA NOT_NAMED 1949-01-22 03:00:00 NR -21.6576 114.062 main 22 15 _____P________ -1 -21.6576 114.062 99 4 227
1949021S21115 1949 5 SI WA NOT_NAMED 1949-01-22 06:00:00 NR -21.8000 113.900 main 15 15 _____O________ -1 -21.8000 113.900 99 9.90000 5 226
1949021S21115 1949 5 SI WA NOT_NAMED 1949-01-22 09:00:00 NR -21.9712 113.711 main 23 23 _____P________ -1 -21.9712 113.711 99 5 225
1949021S21115 1949 5 SI WA NOT_NAMED 1949-01-22 12:00:00 NR -22.1656 113.501 main 32 32 _____P________ -1 -22.1656 113.501 99 6 225
1949021S21115 1949 5 SI WA NOT_NAMED 1949-01-22 15:00:00 NR -22.3757 113.277 main 38 38 _____P________ -1 -22.3757 113.277 99 6 224
1949021S21115 1949 5 SI WA NOT_NAMED 1949-01-22 18:00:00 NR -22.5939 113.046 main 61 61 _____P________ -1 -22.5939 113.046 99 6 224
1949021S21115 1949 5 SI WA NOT_NAMED 1949-01-22 21:00:00 NR -22.8128 112.815 main 85 85 _____P________ -1 -22.8128 112.815 99 6 224
1949021S21115 1949 5 SI WA NOT_NAMED 1949-01-23 00:00:00 NR -23.0251 112.592 main 111 111 _____P________ -1 -23.0251 112.592 99 6 224
1949021S21115 1949 5 SI WA NOT_NAMED 1949-01-23 03:00:00 NR -23.2232 112.384 main 136 130 _____P________ -1 -23.2232 112.384 99 5 224
1949021S21115 1949 5 SI WA NOT_NAMED 1949-01-23 06:00:00 NR -23.4000 112.200 main 143 143 _____O________ -1 -23.4000 112.200 99 9.90000 5 224
1949021S21115 1949 5 SI WA NOT_NAMED 1949-01-23 09:00:00 NR -23.5499 112.045 main 159 156 _____P________ -1 -23.5499 112.045 99 4 223
1949021S21115 1949 5 SI WA NOT_NAMED 1949-01-23 12:00:00 NR -23.6748 111.916 main 164 164 _____P________ -1 -23.6748 111.916 99 3 223
1949021S21115 1949 5 SI WA NOT_NAMED 1949-01-23 15:00:00 NR -23.7783 111.811 main 173 173 _____P________ -1 -23.7783 111.811 99 3 222
1949021S21115 1949 5 SI WA NOT_NAMED 1949-01-23 18:00:00 NR -23.8639 111.725 main 181 181 _____P________ -1 -23.8639 111.725 99 2 222
1949021S21115 1949 5 SI WA NOT_NAMED 1949-01-23 21:00:00 NR -23.9354 111.655 main 181 181 _____P________ -1 -23.9354 111.655 99 2 222
1949021S21115 1949 5 SI WA NOT_NAMED 1949-01-24 00:00:00 NR -23.9962 111.597 main 187 187 _____P________ -1 -23.9962 111.597 99 2 219
1949021S21115 1949 5 SI WA NOT_NAMED 1949-01-24 03:00:00 NR -24.0499 111.547 main 197 195 _____P________ -1 -24.0499 111.547 99 1 221
1949021S21115 1949 5 SI WA NOT_NAMED 1949-01-24 06:00:00 NR -24.1000 111.500 main 195 _____O________ -1 -24.1000 111.500 99 9.90000 1 223

About IBTrACS Database

This database is a web-friendly format of International Best Track Archive for Climate Stewardship (IBTrACS), a global best track data archive curated by NOAA dating back to 1842.

Updated: 2021-12-03